sensor_id;sensor_type;location;lat;lon;timestamp;P1;durP1;ratioP1;P2;durP2;ratioP2
22871;SDS011;11603;44.910;8.630;2023-05-23T00:00:54;16.08;;;12.45;;
22871;SDS011;11603;44.910;8.630;2023-05-23T00:03:22;15.27;;;13.07;;
22871;SDS011;11603;44.910;8.630;2023-05-23T00:05:48;15.88;;;12.57;;
22871;SDS011;11603;44.910;8.630;2023-05-23T00:08:15;13.63;;;12.23;;
22871;SDS011;11603;44.910;8.630;2023-05-23T00:10:41;15.63;;;12.05;;
22871;SDS011;11603;44.910;8.630;2023-05-23T00:13:08;14.15;;;11.95;;
22871;SDS011;11603;44.910;8.630;2023-05-23T00:15:36;15.30;;;12.40;;
22871;SDS011;11603;44.910;8.630;2023-05-23T00:18:01;14.32;;;11.65;;
22871;SDS011;11603;44.910;8.630;2023-05-23T00:20:27;14.48;;;11.77;;
22871;SDS011;11603;44.910;8.630;2023-05-23T00:22:55;15.68;;;12.18;;
22871;SDS011;11603;44.910;8.630;2023-05-23T00:25:23;16.83;;;11.68;;
22871;SDS011;11603;44.910;8.630;2023-05-23T00:27:49;15.77;;;12.00;;
22871;SDS011;11603;44.910;8.630;2023-05-23T00:30:15;13.68;;;11.80;;
22871;SDS011;11603;44.910;8.630;2023-05-23T00:32:41;18.77;;;11.55;;
22871;SDS011;11603;44.910;8.630;2023-05-23T00:35:07;17.77;;;12.02;;
22871;SDS011;11603;44.910;8.630;2023-05-23T00:37:33;15.35;;;11.68;;
22871;SDS011;11603;44.910;8.630;2023-05-23T00:39:58;13.05;;;11.02;;
22871;SDS011;11603;44.910;8.630;2023-05-23T00:42:26;14.00;;;11.90;;
22871;SDS011;11603;44.910;8.630;2023-05-23T00:44:51;16.40;;;12.10;;
22871;SDS011;11603;44.910;8.630;2023-05-23T00:47:17;15.45;;;11.00;;
22871;SDS011;11603;44.910;8.630;2023-05-23T00:49:42;18.05;;;11.55;;
22871;SDS011;11603;44.910;8.630;2023-05-23T00:52:09;13.50;;;12.13;;
22871;SDS011;11603;44.910;8.630;2023-05-23T00:54:35;20.83;;;11.05;;
22871;SDS011;11603;44.910;8.630;2023-05-23T00:57:00;12.82;;;10.85;;
22871;SDS011;11603;44.910;8.630;2023-05-23T00:59:28;16.05;;;10.88;;
22871;SDS011;11603;44.910;8.630;2023-05-23T01:01:55;17.55;;;11.20;;
22871;SDS011;11603;44.910;8.630;2023-05-23T01:04:22;14.48;;;12.25;;
22871;SDS011;11603;44.910;8.630;2023-05-23T01:06:51;14.95;;;11.68;;
22871;SDS011;11603;44.910;8.630;2023-05-23T01:09:18;13.32;;;11.13;;
22871;SDS011;11603;44.910;8.630;2023-05-23T01:14:46;15.35;;;11.95;;
22871;SDS011;11603;44.910;8.630;2023-05-23T01:17:21;18.88;;;11.85;;
22871;SDS011;11603;44.910;8.630;2023-05-23T01:20:01;16.42;;;11.88;;
22871;SDS011;11603;44.910;8.630;2023-05-23T01:28:36;14.68;;;11.75;;
22871;SDS011;11603;44.910;8.630;2023-05-23T01:31:05;15.43;;;12.13;;
22871;SDS011;11603;44.910;8.630;2023-05-23T01:33:33;15.95;;;11.23;;
22871;SDS011;11603;44.910;8.630;2023-05-23T01:36:00;15.52;;;11.77;;
22871;SDS011;11603;44.910;8.630;2023-05-23T01:38:29;16.23;;;11.90;;
22871;SDS011;11603;44.910;8.630;2023-05-23T01:40:55;13.18;;;11.55;;
22871;SDS011;11603;44.910;8.630;2023-05-23T01:43:21;14.25;;;11.90;;
22871;SDS011;11603;44.910;8.630;2023-05-23T01:45:53;13.88;;;11.25;;
22871;SDS011;11603;44.910;8.630;2023-05-23T01:48:21;14.07;;;11.63;;
22871;SDS011;11603;44.910;8.630;2023-05-23T01:50:48;14.75;;;11.82;;
22871;SDS011;11603;44.910;8.630;2023-05-23T01:53:15;13.35;;;11.80;;
22871;SDS011;11603;44.910;8.630;2023-05-23T01:55:45;15.20;;;11.43;;
22871;SDS011;11603;44.910;8.630;2023-05-23T01:58:12;12.85;;;11.50;;
22871;SDS011;11603;44.910;8.630;2023-05-23T02:00:37;15.13;;;11.82;;
22871;SDS011;11603;44.910;8.630;2023-05-23T02:03:03;17.20;;;11.45;;
22871;SDS011;11603;44.910;8.630;2023-05-23T02:05:28;14.23;;;12.05;;
22871;SDS011;11603;44.910;8.630;2023-05-23T02:07:54;14.00;;;12.50;;
22871;SDS011;11603;44.910;8.630;2023-05-23T02:10:21;13.20;;;11.57;;
22871;SDS011;11603;44.910;8.630;2023-05-23T02:12:46;13.25;;;11.95;;
22871;SDS011;11603;44.910;8.630;2023-05-23T02:15:12;14.98;;;11.80;;
22871;SDS011;11603;44.910;8.630;2023-05-23T02:17:38;15.77;;;11.50;;
22871;SDS011;11603;44.910;8.630;2023-05-23T02:20:04;13.05;;;11.63;;
22871;SDS011;11603;44.910;8.630;2023-05-23T02:22:30;14.10;;;11.43;;
22871;SDS011;11603;44.910;8.630;2023-05-23T02:24:56;15.50;;;12.40;;
22871;SDS011;11603;44.910;8.630;2023-05-23T02:27:21;20.13;;;12.50;;
22871;SDS011;11603;44.910;8.630;2023-05-23T02:29:47;17.33;;;12.23;;
22871;SDS011;11603;44.910;8.630;2023-05-23T02:32:12;14.48;;;12.27;;
22871;SDS011;11603;44.910;8.630;2023-05-23T02:34:38;15.70;;;11.75;;
22871;SDS011;11603;44.910;8.630;2023-05-23T02:37:04;15.15;;;12.48;;
22871;SDS011;11603;44.910;8.630;2023-05-23T02:39:30;14.05;;;12.15;;
22871;SDS011;11603;44.910;8.630;2023-05-23T02:41:56;16.58;;;11.70;;
22871;SDS011;11603;44.910;8.630;2023-05-23T02:44:21;15.05;;;12.85;;
22871;SDS011;11603;44.910;8.630;2023-05-23T02:46:47;15.10;;;12.23;;
22871;SDS011;11603;44.910;8.630;2023-05-23T02:49:12;14.00;;;12.52;;
22871;SDS011;11603;44.910;8.630;2023-05-23T02:51:39;13.95;;;11.73;;
22871;SDS011;11603;44.910;8.630;2023-05-23T02:54:04;13.77;;;11.90;;
22871;SDS011;11603;44.910;8.630;2023-05-23T02:56:33;14.48;;;12.98;;
22871;SDS011;11603;44.910;8.630;2023-05-23T02:58:59;19.35;;;13.32;;
22871;SDS011;11603;44.910;8.630;2023-05-23T03:01:24;21.27;;;12.15;;
22871;SDS011;11603;44.910;8.630;2023-05-23T03:03:50;16.20;;;12.73;;
22871;SDS011;11603;44.910;8.630;2023-05-23T03:06:15;17.27;;;12.27;;
22871;SDS011;11603;44.910;8.630;2023-05-23T03:08:42;13.48;;;12.07;;
22871;SDS011;11603;44.910;8.630;2023-05-23T03:11:08;16.58;;;12.02;;
22871;SDS011;11603;44.910;8.630;2023-05-23T03:13:34;14.57;;;12.52;;
22871;SDS011;11603;44.910;8.630;2023-05-23T03:16:00;17.05;;;13.10;;
22871;SDS011;11603;44.910;8.630;2023-05-23T03:18:26;15.23;;;13.60;;
22871;SDS011;11603;44.910;8.630;2023-05-23T03:20:51;15.10;;;12.95;;
22871;SDS011;11603;44.910;8.630;2023-05-23T03:23:21;14.48;;;12.38;;
22871;SDS011;11603;44.910;8.630;2023-05-23T03:25:46;20.33;;;12.73;;
22871;SDS011;11603;44.910;8.630;2023-05-23T03:28:12;15.18;;;12.70;;
22871;SDS011;11603;44.910;8.630;2023-05-23T03:30:37;15.70;;;12.85;;
22871;SDS011;11603;44.910;8.630;2023-05-23T03:33:02;19.70;;;13.23;;
22871;SDS011;11603;44.910;8.630;2023-05-23T03:35:28;15.13;;;13.52;;
22871;SDS011;11603;44.910;8.630;2023-05-23T03:37:54;16.33;;;12.95;;
22871;SDS011;11603;44.910;8.630;2023-05-23T03:40:20;18.05;;;13.43;;
22871;SDS011;11603;44.910;8.630;2023-05-23T03:42:47;28.55;;;15.05;;
22871;SDS011;11603;44.910;8.630;2023-05-23T03:45:14;22.50;;;13.55;;
22871;SDS011;11603;44.910;8.630;2023-05-23T03:47:40;17.88;;;13.85;;
22871;SDS011;11603;44.910;8.630;2023-05-23T03:50:07;15.57;;;13.52;;
22871;SDS011;11603;44.910;8.630;2023-05-23T03:52:34;16.50;;;13.52;;
22871;SDS011;11603;44.910;8.630;2023-05-23T03:55:00;20.95;;;13.15;;
22871;SDS011;11603;44.910;8.630;2023-05-23T03:57:25;15.23;;;12.93;;
22871;SDS011;11603;44.910;8.630;2023-05-23T03:59:51;23.50;;;13.52;;
22871;SDS011;11603;44.910;8.630;2023-05-23T04:02:18;19.75;;;14.43;;
22871;SDS011;11603;44.910;8.630;2023-05-23T04:04:43;20.23;;;13.20;;
22871;SDS011;11603;44.910;8.630;2023-05-23T04:07:09;18.02;;;12.52;;
22871;SDS011;11603;44.910;8.630;2023-05-23T04:09:36;18.65;;;12.73;;
22871;SDS011;11603;44.910;8.630;2023-05-23T04:12:04;20.73;;;12.75;;
22871;SDS011;11603;44.910;8.630;2023-05-23T04:14:30;16.92;;;12.48;;
22871;SDS011;11603;44.910;8.630;2023-05-23T04:16:57;14.82;;;12.70;;
22871;SDS011;11603;44.910;8.630;2023-05-23T04:19:25;23.30;;;12.80;;
22871;SDS011;11603;44.910;8.630;2023-05-23T04:21:51;17.67;;;13.27;;
22871;SDS011;11603;44.910;8.630;2023-05-23T04:24:16;30.58;;;12.80;;
22871;SDS011;11603;44.910;8.630;2023-05-23T04:26:42;21.17;;;12.32;;
22871;SDS011;11603;44.910;8.630;2023-05-23T04:29:08;13.75;;;12.13;;
22871;SDS011;11603;44.910;8.630;2023-05-23T04:31:36;15.85;;;11.90;;
22871;SDS011;11603;44.910;8.630;2023-05-23T04:34:02;16.52;;;11.32;;
22871;SDS011;11603;44.910;8.630;2023-05-23T04:36:30;16.13;;;11.40;;
22871;SDS011;11603;44.910;8.630;2023-05-23T04:38:55;17.75;;;10.68;;
22871;SDS011;11603;44.910;8.630;2023-05-23T04:41:21;15.23;;;10.45;;
22871;SDS011;11603;44.910;8.630;2023-05-23T04:44:06;17.40;;;10.52;;
22871;SDS011;11603;44.910;8.630;2023-05-23T04:47:06;15.98;;;10.93;;
22871;SDS011;11603;44.910;8.630;2023-05-23T04:49:51;13.98;;;10.35;;
22871;SDS011;11603;44.910;8.630;2023-05-23T04:52:18;12.02;;;10.73;;
22871;SDS011;11603;44.910;8.630;2023-05-23T04:54:44;13.98;;;11.13;;
22871;SDS011;11603;44.910;8.630;2023-05-23T04:57:11;15.07;;;11.32;;
22871;SDS011;11603;44.910;8.630;2023-05-23T04:59:37;18.08;;;10.48;;
22871;SDS011;11603;44.910;8.630;2023-05-23T05:02:03;10.82;;;9.82;;
22871;SDS011;11603;44.910;8.630;2023-05-23T05:04:29;15.30;;;10.38;;
22871;SDS011;11603;44.910;8.630;2023-05-23T05:06:55;18.90;;;13.93;;
22871;SDS011;11603;44.910;8.630;2023-05-23T05:09:21;18.75;;;14.35;;
22871;SDS011;11603;44.910;8.630;2023-05-23T05:11:48;18.88;;;14.20;;
22871;SDS011;11603;44.910;8.630;2023-05-23T05:14:14;19.23;;;12.43;;
22871;SDS011;11603;44.910;8.630;2023-05-23T05:16:39;17.67;;;14.18;;
22871;SDS011;11603;44.910;8.630;2023-05-23T05:19:07;17.05;;;15.15;;
22871;SDS011;11603;44.910;8.630;2023-05-23T05:21:32;20.85;;;15.63;;
22871;SDS011;11603;44.910;8.630;2023-05-23T05:23:58;21.67;;;15.52;;
22871;SDS011;11603;44.910;8.630;2023-05-23T05:26:25;17.50;;;14.18;;
22871;SDS011;11603;44.910;8.630;2023-05-23T05:28:52;14.80;;;11.55;;
22871;SDS011;11603;44.910;8.630;2023-05-23T05:31:18;13.57;;;11.77;;
22871;SDS011;11603;44.910;8.630;2023-05-23T05:33:45;16.35;;;11.88;;
22871;SDS011;11603;44.910;8.630;2023-05-23T05:36:13;16.77;;;12.63;;
22871;SDS011;11603;44.910;8.630;2023-05-23T05:38:39;25.23;;;13.63;;
22871;SDS011;11603;44.910;8.630;2023-05-23T05:41:05;16.02;;;13.68;;
22871;SDS011;11603;44.910;8.630;2023-05-23T05:43:34;17.70;;;13.50;;
22871;SDS011;11603;44.910;8.630;2023-05-23T05:46:00;16.52;;;14.52;;
22871;SDS011;11603;44.910;8.630;2023-05-23T05:48:29;23.77;;;14.32;;
22871;SDS011;11603;44.910;8.630;2023-05-23T05:50:59;16.02;;;14.30;;
22871;SDS011;11603;44.910;8.630;2023-05-23T05:53:25;26.70;;;14.55;;
22871;SDS011;11603;44.910;8.630;2023-05-23T05:55:52;17.70;;;14.90;;
22871;SDS011;11603;44.910;8.630;2023-05-23T05:58:19;20.00;;;13.93;;
22871;SDS011;11603;44.910;8.630;2023-05-23T06:00:51;20.35;;;14.48;;
22871;SDS011;11603;44.910;8.630;2023-05-23T06:03:19;16.88;;;14.18;;
22871;SDS011;11603;44.910;8.630;2023-05-23T06:05:51;20.42;;;14.35;;
22871;SDS011;11603;44.910;8.630;2023-05-23T06:08:17;16.30;;;14.32;;
22871;SDS011;11603;44.910;8.630;2023-05-23T06:10:42;16.40;;;13.52;;
22871;SDS011;11603;44.910;8.630;2023-05-23T06:13:08;37.25;;;14.85;;
22871;SDS011;11603;44.910;8.630;2023-05-23T06:15:35;17.65;;;13.98;;
22871;SDS011;11603;44.910;8.630;2023-05-23T06:18:01;20.40;;;13.45;;
22871;SDS011;11603;44.910;8.630;2023-05-23T06:20:28;17.95;;;13.80;;
22871;SDS011;11603;44.910;8.630;2023-05-23T06:22:57;17.75;;;12.95;;
22871;SDS011;11603;44.910;8.630;2023-05-23T06:25:24;17.60;;;13.13;;
22871;SDS011;11603;44.910;8.630;2023-05-23T06:27:50;16.42;;;13.10;;
22871;SDS011;11603;44.910;8.630;2023-05-23T06:30:15;18.77;;;12.75;;
22871;SDS011;11603;44.910;8.630;2023-05-23T06:32:41;15.98;;;12.55;;
22871;SDS011;11603;44.910;8.630;2023-05-23T06:35:07;13.30;;;11.90;;
22871;SDS011;11603;44.910;8.630;2023-05-23T06:37:33;14.30;;;11.98;;
22871;SDS011;11603;44.910;8.630;2023-05-23T06:39:59;17.70;;;12.00;;
22871;SDS011;11603;44.910;8.630;2023-05-23T06:42:25;20.88;;;12.50;;
22871;SDS011;11603;44.910;8.630;2023-05-23T06:45:04;15.57;;;12.70;;
22871;SDS011;11603;44.910;8.630;2023-05-23T06:47:31;17.45;;;13.05;;
22871;SDS011;11603;44.910;8.630;2023-05-23T06:49:56;15.23;;;12.57;;
22871;SDS011;11603;44.910;8.630;2023-05-23T06:52:22;18.88;;;13.32;;
22871;SDS011;11603;44.910;8.630;2023-05-23T06:54:47;15.82;;;12.32;;
22871;SDS011;11603;44.910;8.630;2023-05-23T06:57:13;17.92;;;13.10;;
22871;SDS011;11603;44.910;8.630;2023-05-23T06:59:39;16.63;;;12.82;;
22871;SDS011;11603;44.910;8.630;2023-05-23T07:02:04;15.20;;;13.60;;
22871;SDS011;11603;44.910;8.630;2023-05-23T07:04:30;15.43;;;13.35;;
22871;SDS011;11603;44.910;8.630;2023-05-23T07:07:00;17.27;;;13.57;;
22871;SDS011;11603;44.910;8.630;2023-05-23T07:09:27;14.82;;;12.13;;
22871;SDS011;11603;44.910;8.630;2023-05-23T07:12:02;18.00;;;13.35;;
22871;SDS011;11603;44.910;8.630;2023-05-23T07:14:28;19.88;;;13.15;;
22871;SDS011;11603;44.910;8.630;2023-05-23T07:16:53;16.90;;;12.55;;
22871;SDS011;11603;44.910;8.630;2023-05-23T07:19:21;16.00;;;12.10;;
22871;SDS011;11603;44.910;8.630;2023-05-23T07:21:49;15.52;;;12.65;;
22871;SDS011;11603;44.910;8.630;2023-05-23T07:24:16;15.88;;;13.35;;
22871;SDS011;11603;44.910;8.630;2023-05-23T07:26:42;15.02;;;12.07;;
22871;SDS011;11603;44.910;8.630;2023-05-23T07:29:08;15.68;;;12.52;;
22871;SDS011;11603;44.910;8.630;2023-05-23T07:31:33;14.27;;;11.85;;
22871;SDS011;11603;44.910;8.630;2023-05-23T07:33:59;19.90;;;12.65;;
22871;SDS011;11603;44.910;8.630;2023-05-23T07:36:36;12.85;;;11.55;;
22871;SDS011;11603;44.910;8.630;2023-05-23T07:39:07;17.85;;;12.55;;
22871;SDS011;11603;44.910;8.630;2023-05-23T07:41:32;15.88;;;11.90;;
22871;SDS011;11603;44.910;8.630;2023-05-23T07:43:58;15.75;;;11.93;;
22871;SDS011;11603;44.910;8.630;2023-05-23T07:46:24;16.35;;;11.40;;
22871;SDS011;11603;44.910;8.630;2023-05-23T07:48:49;14.32;;;11.35;;
22871;SDS011;11603;44.910;8.630;2023-05-23T07:51:15;12.88;;;11.00;;
22871;SDS011;11603;44.910;8.630;2023-05-23T07:53:43;13.82;;;11.45;;
22871;SDS011;11603;44.910;8.630;2023-05-23T07:56:11;18.00;;;11.68;;
22871;SDS011;11603;44.910;8.630;2023-05-23T07:58:39;11.88;;;10.43;;
22871;SDS011;11603;44.910;8.630;2023-05-23T08:01:06;17.38;;;11.05;;
22871;SDS011;11603;44.910;8.630;2023-05-23T08:03:57;15.77;;;10.88;;
22871;SDS011;11603;44.910;8.630;2023-05-23T08:06:29;13.45;;;10.68;;
22871;SDS011;11603;44.910;8.630;2023-05-23T08:08:59;18.33;;;10.80;;
22871;SDS011;11603;44.910;8.630;2023-05-23T08:11:26;14.70;;;10.43;;
22871;SDS011;11603;44.910;8.630;2023-05-23T08:13:55;13.43;;;10.95;;
22871;SDS011;11603;44.910;8.630;2023-05-23T08:16:42;16.20;;;9.85;;
22871;SDS011;11603;44.910;8.630;2023-05-23T08:19:12;14.02;;;9.77;;
22871;SDS011;11603;44.910;8.630;2023-05-23T08:21:38;16.45;;;9.93;;
22871;SDS011;11603;44.910;8.630;2023-05-23T08:24:04;13.55;;;10.05;;
22871;SDS011;11603;44.910;8.630;2023-05-23T08:26:30;12.57;;;9.32;;
22871;SDS011;11603;44.910;8.630;2023-05-23T08:29:01;14.65;;;9.93;;
22871;SDS011;11603;44.910;8.630;2023-05-23T08:31:27;14.82;;;10.45;;
22871;SDS011;11603;44.910;8.630;2023-05-23T08:33:53;13.77;;;9.48;;
22871;SDS011;11603;44.910;8.630;2023-05-23T08:36:18;13.23;;;9.35;;
22871;SDS011;11603;44.910;8.630;2023-05-23T08:38:45;13.18;;;10.07;;
22871;SDS011;11603;44.910;8.630;2023-05-23T08:41:18;10.18;;;9.05;;
22871;SDS011;11603;44.910;8.630;2023-05-23T08:43:47;13.75;;;8.90;;
22871;SDS011;11603;44.910;8.630;2023-05-23T08:46:20;10.57;;;9.07;;
22871;SDS011;11603;44.910;8.630;2023-05-23T08:48:52;11.65;;;9.57;;
22871;SDS011;11603;44.910;8.630;2023-05-23T08:51:24;12.02;;;9.95;;
22871;SDS011;11603;44.910;8.630;2023-05-23T08:53:51;14.55;;;9.60;;
22871;SDS011;11603;44.910;8.630;2023-05-23T08:56:19;10.55;;;9.05;;
22871;SDS011;11603;44.910;8.630;2023-05-23T08:58:47;11.70;;;9.40;;
22871;SDS011;11603;44.910;8.630;2023-05-23T09:01:15;14.65;;;8.45;;
22871;SDS011;11603;44.910;8.630;2023-05-23T09:03:44;9.93;;;8.60;;
22871;SDS011;11603;44.910;8.630;2023-05-23T09:06:17;14.52;;;8.93;;
22871;SDS011;11603;44.910;8.630;2023-05-23T09:08:45;12.48;;;9.88;;
22871;SDS011;11603;44.910;8.630;2023-05-23T09:11:15;11.25;;;9.65;;
22871;SDS011;11603;44.910;8.630;2023-05-23T09:13:42;13.82;;;8.82;;
22871;SDS011;11603;44.910;8.630;2023-05-23T09:16:11;9.85;;;8.73;;
22871;SDS011;11603;44.910;8.630;2023-05-23T09:18:42;11.52;;;8.40;;
22871;SDS011;11603;44.910;8.630;2023-05-23T09:21:11;14.95;;;9.35;;
22871;SDS011;11603;44.910;8.630;2023-05-23T09:23:47;12.23;;;8.98;;
22871;SDS011;11603;44.910;8.630;2023-05-23T09:26:13;12.32;;;8.52;;
22871;SDS011;11603;44.910;8.630;2023-05-23T09:28:39;12.13;;;8.57;;
22871;SDS011;11603;44.910;8.630;2023-05-23T09:31:07;13.35;;;8.27;;
22871;SDS011;11603;44.910;8.630;2023-05-23T09:36:02;9.30;;;8.27;;
22871;SDS011;11603;44.910;8.630;2023-05-23T09:38:28;12.80;;;8.30;;
22871;SDS011;11603;44.910;8.630;2023-05-23T09:40:54;13.13;;;8.60;;
22871;SDS011;11603;44.910;8.630;2023-05-23T09:43:22;10.15;;;8.32;;
22871;SDS011;11603;44.910;8.630;2023-05-23T09:45:52;9.63;;;8.27;;
22871;SDS011;11603;44.910;8.630;2023-05-23T09:48:18;11.43;;;8.23;;
22871;SDS011;11603;44.910;8.630;2023-05-23T09:50:44;13.30;;;8.30;;
22871;SDS011;11603;44.910;8.630;2023-05-23T09:53:10;11.65;;;8.10;;
22871;SDS011;11603;44.910;8.630;2023-05-23T09:55:35;13.70;;;8.43;;
22871;SDS011;11603;44.910;8.630;2023-05-23T09:58:00;10.55;;;8.55;;
22871;SDS011;11603;44.910;8.630;2023-05-23T10:00:28;17.67;;;9.73;;
22871;SDS011;11603;44.910;8.630;2023-05-23T10:03:09;14.02;;;10.35;;
22871;SDS011;11603;44.910;8.630;2023-05-23T10:05:45;13.60;;;8.60;;
22871;SDS011;11603;44.910;8.630;2023-05-23T10:08:13;18.73;;;8.80;;
22871;SDS011;11603;44.910;8.630;2023-05-23T10:13:20;12.82;;;8.90;;
22871;SDS011;11603;44.910;8.630;2023-05-23T10:15:50;14.35;;;8.25;;
22871;SDS011;11603;44.910;8.630;2023-05-23T10:18:22;12.07;;;8.20;;
22871;SDS011;11603;44.910;8.630;2023-05-23T10:20:53;9.75;;;8.20;;
22871;SDS011;11603;44.910;8.630;2023-05-23T10:23:29;10.10;;;7.75;;
22871;SDS011;11603;44.910;8.630;2023-05-23T10:25:56;13.10;;;8.43;;
22871;SDS011;11603;44.910;8.630;2023-05-23T10:28:21;12.68;;;8.25;;
22871;SDS011;11603;44.910;8.630;2023-05-23T10:30:47;14.23;;;8.38;;
22871;SDS011;11603;44.910;8.630;2023-05-23T10:33:13;11.40;;;8.07;;
22871;SDS011;11603;44.910;8.630;2023-05-23T10:38:12;11.30;;;8.20;;
22871;SDS011;11603;44.910;8.630;2023-05-23T10:41:05;10.55;;;7.50;;
22871;SDS011;11603;44.910;8.630;2023-05-23T10:43:54;11.00;;;8.45;;
22871;SDS011;11603;44.910;8.630;2023-05-23T10:49:14;8.13;;;6.88;;
22871;SDS011;11603;44.910;8.630;2023-05-23T10:51:41;10.82;;;6.75;;
22871;SDS011;11603;44.910;8.630;2023-05-23T10:54:09;7.28;;;6.20;;
22871;SDS011;11603;44.910;8.630;2023-05-23T10:56:37;7.25;;;6.45;;
22871;SDS011;11603;44.910;8.630;2023-05-23T10:59:04;8.60;;;6.07;;
22871;SDS011;11603;44.910;8.630;2023-05-23T11:01:30;7.88;;;6.70;;
22871;SDS011;11603;44.910;8.630;2023-05-23T11:03:56;9.70;;;6.13;;
22871;SDS011;11603;44.910;8.630;2023-05-23T11:06:38;12.50;;;6.18;;
22871;SDS011;11603;44.910;8.630;2023-05-23T11:09:12;6.97;;;6.28;;
22871;SDS011;11603;44.910;8.630;2023-05-23T11:19:36;10.35;;;6.43;;
22871;SDS011;11603;44.910;8.630;2023-05-23T11:22:03;10.25;;;6.53;;
22871;SDS011;11603;44.910;8.630;2023-05-23T11:27:32;9.55;;;6.90;;
22871;SDS011;11603;44.910;8.630;2023-05-23T11:30:09;7.95;;;7.05;;
22871;SDS011;11603;44.910;8.630;2023-05-23T11:32:37;11.65;;;7.93;;
22871;SDS011;11603;44.910;8.630;2023-05-23T11:35:06;10.98;;;7.80;;
22871;SDS011;11603;44.910;8.630;2023-05-23T11:37:34;10.88;;;8.30;;
22871;SDS011;11603;44.910;8.630;2023-05-23T11:42:49;9.20;;;7.57;;
22871;SDS011;11603;44.910;8.630;2023-05-23T11:45:18;7.72;;;6.78;;
22871;SDS011;11603;44.910;8.630;2023-05-23T11:47:43;8.63;;;7.30;;
22871;SDS011;11603;44.910;8.630;2023-05-23T11:50:09;9.38;;;7.15;;
22871;SDS011;11603;44.910;8.630;2023-05-23T11:52:35;9.23;;;7.03;;
22871;SDS011;11603;44.910;8.630;2023-05-23T11:55:00;9.63;;;6.63;;
22871;SDS011;11603;44.910;8.630;2023-05-23T11:57:26;10.23;;;7.05;;
22871;SDS011;11603;44.910;8.630;2023-05-23T11:59:52;8.18;;;6.95;;
22871;SDS011;11603;44.910;8.630;2023-05-23T12:02:18;9.95;;;7.35;;
22871;SDS011;11603;44.910;8.630;2023-05-23T12:04:45;11.63;;;7.05;;
22871;SDS011;11603;44.910;8.630;2023-05-23T12:07:10;7.95;;;6.80;;
22871;SDS011;11603;44.910;8.630;2023-05-23T12:09:41;9.63;;;6.80;;
22871;SDS011;11603;44.910;8.630;2023-05-23T12:12:07;9.32;;;6.38;;
22871;SDS011;11603;44.910;8.630;2023-05-23T12:14:33;11.63;;;6.00;;
22871;SDS011;11603;44.910;8.630;2023-05-23T12:16:58;8.50;;;6.60;;
22871;SDS011;11603;44.910;8.630;2023-05-23T12:19:24;7.13;;;6.43;;
22871;SDS011;11603;44.910;8.630;2023-05-23T12:21:49;8.43;;;6.18;;
22871;SDS011;11603;44.910;8.630;2023-05-23T12:24:15;10.32;;;7.00;;
22871;SDS011;11603;44.910;8.630;2023-05-23T12:26:51;13.60;;;6.65;;
22871;SDS011;11603;44.910;8.630;2023-05-23T12:29:27;9.65;;;5.88;;
22871;SDS011;11603;44.910;8.630;2023-05-23T12:31:58;11.85;;;6.50;;
22871;SDS011;11603;44.910;8.630;2023-05-23T12:34:25;8.23;;;6.88;;
22871;SDS011;11603;44.910;8.630;2023-05-23T12:36:54;9.88;;;5.75;;
22871;SDS011;11603;44.910;8.630;2023-05-23T12:39:24;8.45;;;6.53;;
22871;SDS011;11603;44.910;8.630;2023-05-23T12:41:51;8.73;;;6.35;;
22871;SDS011;11603;44.910;8.630;2023-05-23T12:44:17;6.93;;;6.22;;
22871;SDS011;11603;44.910;8.630;2023-05-23T12:46:43;6.57;;;5.93;;
22871;SDS011;11603;44.910;8.630;2023-05-23T12:49:09;10.85;;;6.05;;
22871;SDS011;11603;44.910;8.630;2023-05-23T12:51:35;8.13;;;5.85;;
22871;SDS011;11603;44.910;8.630;2023-05-23T12:54:00;10.00;;;5.35;;
22871;SDS011;11603;44.910;8.630;2023-05-23T12:56:26;7.13;;;5.47;;
22871;SDS011;11603;44.910;8.630;2023-05-23T12:58:51;6.55;;;5.60;;
22871;SDS011;11603;44.910;8.630;2023-05-23T13:01:21;9.30;;;5.22;;
22871;SDS011;11603;44.910;8.630;2023-05-23T13:03:46;6.05;;;5.38;;
22871;SDS011;11603;44.910;8.630;2023-05-23T13:06:12;7.93;;;5.75;;
22871;SDS011;11603;44.910;8.630;2023-05-23T13:08:37;10.57;;;5.63;;
22871;SDS011;11603;44.910;8.630;2023-05-23T13:11:06;9.35;;;5.60;;
22871;SDS011;11603;44.910;8.630;2023-05-23T13:13:32;8.98;;;5.60;;
22871;SDS011;11603;44.910;8.630;2023-05-23T13:15:58;8.77;;;5.43;;
22871;SDS011;11603;44.910;8.630;2023-05-23T13:18:23;6.45;;;5.30;;
22871;SDS011;11603;44.910;8.630;2023-05-23T13:20:49;6.72;;;5.38;;
22871;SDS011;11603;44.910;8.630;2023-05-23T13:23:15;6.03;;;5.38;;
22871;SDS011;11603;44.910;8.630;2023-05-23T13:36:56;7.38;;;5.78;;
22871;SDS011;11603;44.910;8.630;2023-05-23T13:39:21;7.15;;;6.18;;
22871;SDS011;11603;44.910;8.630;2023-05-23T13:41:48;8.57;;;5.28;;
22871;SDS011;11603;44.910;8.630;2023-05-23T13:44:14;8.85;;;5.38;;
22871;SDS011;11603;44.910;8.630;2023-05-23T13:46:41;6.60;;;5.07;;
22871;SDS011;11603;44.910;8.630;2023-05-23T13:49:07;10.50;;;5.35;;
22871;SDS011;11603;44.910;8.630;2023-05-23T13:51:32;8.88;;;5.57;;
22871;SDS011;11603;44.910;8.630;2023-05-23T13:53:58;9.38;;;5.60;;
22871;SDS011;11603;44.910;8.630;2023-05-23T13:56:23;11.82;;;5.13;;
22871;SDS011;11603;44.910;8.630;2023-05-23T13:58:49;6.82;;;5.10;;
22871;SDS011;11603;44.910;8.630;2023-05-23T14:01:14;7.93;;;5.18;;
22871;SDS011;11603;44.910;8.630;2023-05-23T14:03:41;12.60;;;5.65;;
22871;SDS011;11603;44.910;8.630;2023-05-23T14:06:06;8.65;;;5.43;;
22871;SDS011;11603;44.910;8.630;2023-05-23T14:08:32;7.82;;;5.05;;
22871;SDS011;11603;44.910;8.630;2023-05-23T14:10:59;7.63;;;5.10;;
22871;SDS011;11603;44.910;8.630;2023-05-23T14:13:24;8.70;;;4.95;;
22871;SDS011;11603;44.910;8.630;2023-05-23T14:15:50;8.35;;;4.85;;
22871;SDS011;11603;44.910;8.630;2023-05-23T14:18:16;8.05;;;4.80;;
22871;SDS011;11603;44.910;8.630;2023-05-23T14:20:41;6.00;;;4.63;;
22871;SDS011;11603;44.910;8.630;2023-05-23T14:23:06;8.25;;;4.63;;
22871;SDS011;11603;44.910;8.630;2023-05-23T14:25:32;6.25;;;5.00;;
22871;SDS011;11603;44.910;8.630;2023-05-23T14:27:57;8.75;;;4.63;;
22871;SDS011;11603;44.910;8.630;2023-05-23T14:30:23;7.47;;;4.35;;
22871;SDS011;11603;44.910;8.630;2023-05-23T14:32:48;5.45;;;4.60;;
22871;SDS011;11603;44.910;8.630;2023-05-23T14:35:14;13.93;;;5.35;;
22871;SDS011;11603;44.910;8.630;2023-05-23T14:37:39;7.55;;;4.95;;
22871;SDS011;11603;44.910;8.630;2023-05-23T14:40:05;8.00;;;5.28;;
22871;SDS011;11603;44.910;8.630;2023-05-23T14:42:31;17.60;;;5.53;;
22871;SDS011;11603;44.910;8.630;2023-05-23T14:44:57;6.93;;;5.13;;
22871;SDS011;11603;44.910;8.630;2023-05-23T14:47:22;8.15;;;5.03;;
22871;SDS011;11603;44.910;8.630;2023-05-23T14:49:48;13.13;;;4.93;;
22871;SDS011;11603;44.910;8.630;2023-05-23T14:52:16;6.07;;;5.20;;
22871;SDS011;11603;44.910;8.630;2023-05-23T14:54:43;5.85;;;5.10;;
22871;SDS011;11603;44.910;8.630;2023-05-23T14:57:09;8.55;;;5.05;;
22871;SDS011;11603;44.910;8.630;2023-05-23T14:59:34;9.25;;;5.30;;
22871;SDS011;11603;44.910;8.630;2023-05-23T15:02:01;9.23;;;5.60;;
22871;SDS011;11603;44.910;8.630;2023-05-23T15:04:27;7.57;;;5.65;;
22871;SDS011;11603;44.910;8.630;2023-05-23T15:06:52;8.02;;;5.80;;
22871;SDS011;11603;44.910;8.630;2023-05-23T15:09:19;7.35;;;5.57;;
22871;SDS011;11603;44.910;8.630;2023-05-23T15:11:45;6.78;;;5.70;;
22871;SDS011;11603;44.910;8.630;2023-05-23T15:14:13;10.30;;;5.70;;
22871;SDS011;11603;44.910;8.630;2023-05-23T15:16:39;8.23;;;5.63;;